X  Sluiten METAR luchtvaart weer gegevens      EHGG Eelde Airport
Temperatuur
7°C Temperatuur
6°C Dauwpunt
93% Vochtigheid



Wind
27 KM/U
17 MPH
8 M/S
15 KTS



200°
ZZW
Huidig weer

Grotendeels bewolkt Grotendeels bewolkt
Luchtdruk 995.92 (hPa) - 29.41 (inHg)
Zicht 5.6 (mijl) - 9 (km)
Vliegveld
Vliegveld code EHGG

Locatie : Eelde Airport
Afstand: 14 (km)

Metar:
EHGG 200525Z AUTO 20015KT 170V230 9000 BKN010 OVC012 07/06 Q0996 NOSIG

Tijd: 20-01-2021 06:25 CET